Time;durP1;ratioP1;P1;durP2;ratioP2;P2;SDS_P1;SDS_P2;PMS_P1;PMS_P2;Temp;Humidity;BMP_temperature;BMP_pressure;BME280_temperature;BME280_humidity;BME280_pressure;Samples;Min_cycle;Max_cycle;Signal;HPM_P1;HPM_P2
2023/04/27 00:00:58;;;;;;;5.30;2.78;;;;;;;;;;5084411;28;20200;-68
2023/04/27 00:03:24;;;;;;;6.68;2.30;;;;;;;;;;5084214;28;20205;-68
2023/04/27 00:05:50;;;;;;;3.90;2.85;;;;;;;;;;5084346;28;20431;-68
2023/04/27 00:08:18;;;;;;;5.97;2.95;;;;;;;;;;5084059;28;20626;-68
2023/04/27 00:10:44;;;;;;;3.08;2.70;;;;;;;;;;5084087;28;20446;-68
2023/04/27 00:13:10;;;;;;;2.90;2.70;;;;;;;;;;5084273;28;20228;-68
2023/04/27 00:15:36;;;;;;;5.75;3.13;;;;;;;;;;5084394;28;20204;-68
2023/04/27 00:18:03;;;;;;;2.78;2.53;;;;;;;;;;5084082;28;20200;-68
2023/04/27 00:20:29;;;;;;;3.42;3.13;;;;;;;;;;5084247;28;20196;-68
2023/04/27 00:22:55;;;;;;;3.75;2.53;;;;;;;;;;5084070;28;20200;-68
2023/04/27 00:25:23;;;;;;;3.22;2.42;;;;;;;;;;5083829;28;20504;-68
2023/04/27 00:27:49;;;;;;;2.40;2.30;;;;;;;;;;5083868;28;20227;-68
2023/04/27 00:30:16;;;;;;;3.10;2.78;;;;;;;;;;5083948;28;20254;-68
2023/04/27 00:32:42;;;;;;;2.83;2.40;;;;;;;;;;5083898;28;20220;-68
2023/04/27 00:35:08;;;;;;;2.55;2.13;;;;;;;;;;5083754;28;20500;-68
2023/04/27 00:37:35;;;;;;;2.25;2.15;;;;;;;;;;5083749;28;20196;-68
2023/04/27 00:40:03;;;;;;;2.33;2.22;;;;;;;;;;5083395;28;20235;-68
2023/04/27 00:42:31;;;;;;;3.10;2.80;;;;;;;;;;5075319;28;20203;-68
2023/04/27 00:44:57;;;;;;;5.57;2.33;;;;;;;;;;5083664;28;20215;-68
2023/04/27 00:47:23;;;;;;;2.58;2.13;;;;;;;;;;5083343;28;20211;-68
2023/04/27 00:49:50;;;;;;;3.47;2.47;;;;;;;;;;5083397;28;20484;-68
2023/04/27 00:52:16;;;;;;;5.30;3.00;;;;;;;;;;5083127;28;20292;-68
2023/04/27 00:54:43;;;;;;;4.45;3.03;;;;;;;;;;5083643;28;20209;-68
2023/04/27 00:57:09;;;;;;;2.80;2.10;;;;;;;;;;5083546;28;20200;-68
2023/04/27 00:59:37;;;;;;;3.92;2.88;;;;;;;;;;5083282;28;20196;-68
2023/04/27 01:02:03;;;;;;;3.22;2.90;;;;;;;;;;5083270;28;20250;-68
2023/04/27 01:04:30;;;;;;;4.38;3.15;;;;;;;;;;5075231;28;20205;-68
2023/04/27 01:06:57;;;;;;;3.05;2.85;;;;;;;;;;5082925;28;20200;-68
2023/04/27 01:09:23;;;;;;;2.85;2.72;;;;;;;;;;5082987;28;20201;-68
2023/04/27 01:11:49;;;;;;;2.92;2.70;;;;;;;;;;5083099;28;20404;-68
2023/04/27 01:14:16;;;;;;;3.63;2.67;;;;;;;;;;5082840;28;20211;-68
2023/04/27 01:16:45;;;;;;;3.53;3.20;;;;;;;;;;5082982;28;20369;-68
2023/04/27 01:19:11;;;;;;;4.07;2.70;;;;;;;;;;5082546;28;20200;-68
2023/04/27 01:21:37;;;;;;;3.42;3.13;;;;;;;;;;5083155;28;20200;-68
2023/04/27 01:24:06;;;;;;;5.82;3.17;;;;;;;;;;5082880;28;20246;-68
2023/04/27 01:26:32;;;;;;;4.88;3.15;;;;;;;;;;5074958;28;20546;-68
2023/04/27 01:28:58;;;;;;;10.00;3.05;;;;;;;;;;5082580;28;20261;-68
2023/04/27 01:31:25;;;;;;;5.47;2.80;;;;;;;;;;5082347;28;20235;-68
2023/04/27 01:33:51;;;;;;;3.17;2.90;;;;;;;;;;5082639;28;20237;-68
2023/04/27 01:36:17;;;;;;;6.00;3.28;;;;;;;;;;5082494;28;20200;-68
2023/04/27 01:38:43;;;;;;;8.68;3.40;;;;;;;;;;5082218;28;20211;-68
2023/04/27 01:41:11;;;;;;;8.57;3.83;;;;;;;;;;5082523;28;20196;-68
2023/04/27 01:43:37;;;;;;;4.10;3.17;;;;;;;;;;5082487;28;20197;-68
2023/04/27 01:46:07;;;;;;;5.35;3.40;;;;;;;;;;5082304;28;20215;-68
2023/04/27 01:48:33;;;;;;;4.28;3.05;;;;;;;;;;5074398;28;20500;-68
2023/04/27 01:50:59;;;;;;;4.50;2.97;;;;;;;;;;5082545;28;20500;-68
2023/04/27 01:53:26;;;;;;;6.60;3.10;;;;;;;;;;5081484;28;20200;-68
2023/04/27 01:55:52;;;;;;;4.35;2.67;;;;;;;;;;5082447;28;20200;-68
2023/04/27 01:58:20;;;;;;;5.32;3.70;;;;;;;;;;5081950;28;20200;-68
2023/04/27 02:00:46;;;;;;;5.13;3.33;;;;;;;;;;5082147;28;20391;-68
2023/04/27 02:03:12;;;;;;;5.40;2.72;;;;;;;;;;5082324;28;20196;-68
2023/04/27 02:05:38;;;;;;;3.30;2.97;;;;;;;;;;5082346;28;20196;-68
2023/04/27 02:08:05;;;;;;;4.32;2.80;;;;;;;;;;5081817;28;20201;-68
2023/04/27 02:10:31;;;;;;;5.85;3.40;;;;;;;;;;5082047;28;20196;-68
2023/04/27 02:12:57;;;;;;;3.40;2.90;;;;;;;;;;5081940;28;20224;-68
2023/04/27 02:15:25;;;;;;;2.95;2.63;;;;;;;;;;5082055;28;20226;-68
2023/04/27 02:17:51;;;;;;;4.03;2.60;;;;;;;;;;5081873;28;20219;-68
2023/04/27 02:20:17;;;;;;;5.72;3.00;;;;;;;;;;5082025;28;20446;-68
2023/04/27 02:22:44;;;;;;;4.93;2.75;;;;;;;;;;5081843;28;20200;-68
2023/04/27 02:25:11;;;;;;;3.40;3.10;;;;;;;;;;5081943;28;20208;-68
2023/04/27 02:27:37;;;;;;;6.05;3.05;;;;;;;;;;5081786;28;20220;-68
2023/04/27 02:30:04;;;;;;;6.85;3.13;;;;;;;;;;5082122;28;20508;-68
2023/04/27 02:32:32;;;;;;;3.22;2.75;;;;;;;;;;5081757;28;20255;-68
2023/04/27 02:34:58;;;;;;;7.30;2.95;;;;;;;;;;5081828;28;20211;-68
2023/04/27 02:37:25;;;;;;;4.45;2.63;;;;;;;;;;5081632;28;20200;-68
2023/04/27 02:39:51;;;;;;;2.75;2.63;;;;;;;;;;5081543;28;20226;-68
2023/04/27 02:42:17;;;;;;;5.60;2.95;;;;;;;;;;5081645;28;20242;-68
2023/04/27 02:44:43;;;;;;;6.90;3.30;;;;;;;;;;5081817;28;20519;-68
2023/04/27 02:47:10;;;;;;;3.33;3.00;;;;;;;;;;5081637;28;20522;-68
2023/04/27 02:49:37;;;;;;;3.10;2.63;;;;;;;;;;5081521;28;20196;-68
2023/04/27 02:52:04;;;;;;;3.38;3.08;;;;;;;;;;5081553;28;20220;-68
2023/04/27 02:54:30;;;;;;;3.40;3.10;;;;;;;;;;5081457;28;20196;-68
2023/04/27 02:56:56;;;;;;;5.10;3.10;;;;;;;;;;5081434;28;20212;-68
2023/04/27 02:59:23;;;;;;;4.10;3.45;;;;;;;;;;5081570;28;20200;-68
2023/04/27 03:01:49;;;;;;;5.28;3.60;;;;;;;;;;5081761;28;20249;-68
2023/04/27 03:04:16;;;;;;;3.47;2.97;;;;;;;;;;5082937;28;20283;-68
2023/04/27 03:06:44;;;;;;;8.10;3.60;;;;;;;;;;5085439;28;20224;-68
2023/04/27 03:09:11;;;;;;;3.17;3.05;;;;;;;;;;5085218;28;20200;-68
2023/04/27 03:11:37;;;;;;;5.57;3.10;;;;;;;;;;5085271;28;20435;-68
2023/04/27 03:14:04;;;;;;;4.10;3.05;;;;;;;;;;5085398;28;20528;-68
2023/04/27 03:16:31;;;;;;;5.05;3.00;;;;;;;;;;5085482;28;20246;-68
2023/04/27 03:18:57;;;;;;;4.70;3.10;;;;;;;;;;5085110;28;20207;-68
2023/04/27 03:21:23;;;;;;;3.85;2.85;;;;;;;;;;5085111;28;20238;-68
2023/04/27 03:23:51;;;;;;;5.03;3.10;;;;;;;;;;5085239;28;20238;-68
2023/04/27 03:26:18;;;;;;;3.13;2.92;;;;;;;;;;5085298;28;20516;-68
2023/04/27 03:28:44;;;;;;;6.80;3.25;;;;;;;;;;5085008;28;20228;-68
2023/04/27 03:31:11;;;;;;;8.13;3.10;;;;;;;;;;5085276;28;20208;-68
2023/04/27 03:33:38;;;;;;;5.40;2.63;;;;;;;;;;5076818;28;20426;-68
2023/04/27 03:36:05;;;;;;;4.30;3.05;;;;;;;;;;5085044;28;20232;-68
2023/04/27 03:38:31;;;;;;;3.45;3.17;;;;;;;;;;5084541;28;20201;-68
2023/04/27 03:40:59;;;;;;;4.50;3.30;;;;;;;;;;5085064;28;20372;-68
2023/04/27 03:43:26;;;;;;;4.18;3.83;;;;;;;;;;5084602;28;20203;-68
2023/04/27 03:45:52;;;;;;;4.18;3.88;;;;;;;;;;5084809;28;20261;-68
2023/04/27 03:48:19;;;;;;;4.53;3.47;;;;;;;;;;5084533;28;20204;-68
2023/04/27 03:50:46;;;;;;;7.40;3.33;;;;;;;;;;5085238;28;20204;-68
2023/04/27 03:53:12;;;;;;;7.45;3.80;;;;;;;;;;5084534;28;20220;-68
2023/04/27 03:55:39;;;;;;;3.45;3.25;;;;;;;;;;5076400;28;20204;-68
2023/04/27 03:58:06;;;;;;;4.13;3.67;;;;;;;;;;5084468;28;20204;-68
2023/04/27 04:00:33;;;;;;;7.90;3.92;;;;;;;;;;5084587;28;20342;-69
2023/04/27 04:02:59;;;;;;;4.30;3.90;;;;;;;;;;5084472;28;20256;-68
2023/04/27 04:05:25;;;;;;;3.97;3.40;;;;;;;;;;5084323;28;20238;-68
2023/04/27 04:07:51;;;;;;;5.32;3.78;;;;;;;;;;5084200;28;20220;-68
2023/04/27 04:10:18;;;;;;;4.97;3.65;;;;;;;;;;5084305;28;20220;-68
2023/04/27 04:12:44;;;;;;;7.35;3.92;;;;;;;;;;5084086;28;20237;-68
2023/04/27 04:15:12;;;;;;;7.15;3.67;;;;;;;;;;5083750;28;20512;-68
2023/04/27 04:17:38;;;;;;;6.40;4.13;;;;;;;;;;5083880;28;20497;-69
2023/04/27 04:20:08;;;;;;;6.53;4.38;;;;;;;;;;5084218;28;20205;-69
2023/04/27 04:22:34;;;;;;;5.53;4.65;;;;;;;;;;5084114;28;20192;-68
2023/04/27 04:25:03;;;;;;;7.93;5.03;;;;;;;;;;5084642;28;20402;-68
2023/04/27 04:27:30;;;;;;;4.40;3.78;;;;;;;;;;5084140;28;20520;-68
2023/04/27 04:29:59;;;;;;;5.78;4.43;;;;;;;;;;5084031;28;20228;-68
2023/04/27 04:32:30;;;;;;;5.28;4.78;;;;;;;;;;5084107;28;20557;-68
2023/04/27 04:34:56;;;;;;;4.35;4.00;;;;;;;;;;5084249;28;20267;-68
2023/04/27 04:37:22;;;;;;;4.88;4.45;;;;;;;;;;5084291;28;20207;-68
2023/04/27 04:39:49;;;;;;;5.65;4.38;;;;;;;;;;5084073;28;20204;-68
2023/04/27 04:42:15;;;;;;;4.05;3.83;;;;;;;;;;5084092;28;20249;-68
2023/04/27 04:44:41;;;;;;;8.02;4.45;;;;;;;;;;5075881;28;20196;-68
2023/04/27 04:47:08;;;;;;;5.78;4.22;;;;;;;;;;5084005;28;20310;-68
2023/04/27 04:49:36;;;;;;;5.65;4.40;;;;;;;;;;5083345;28;20210;-68
2023/04/27 04:52:03;;;;;;;6.40;3.97;;;;;;;;;;5084102;28;20200;-68
2023/04/27 04:54:29;;;;;;;6.28;4.20;;;;;;;;;;5083658;28;20395;-69
2023/04/27 04:56:57;;;;;;;8.77;4.38;;;;;;;;;;5083709;28;20503;-68
2023/04/27 04:59:23;;;;;;;6.18;4.20;;;;;;;;;;5083627;28;20205;-68
2023/04/27 05:01:49;;;;;;;5.78;4.03;;;;;;;;;;5083493;28;20238;-68
2023/04/27 05:04:17;;;;;;;7.05;4.30;;;;;;;;;;5083630;28;20380;-69
2023/04/27 05:06:45;;;;;;;4.78;4.35;;;;;;;;;;5083596;28;20400;-69
2023/04/27 05:09:11;;;;;;;8.82;5.00;;;;;;;;;;5083805;28;20200;-68
2023/04/27 05:11:37;;;;;;;4.95;4.53;;;;;;;;;;5083467;28;20200;-68
2023/04/27 05:14:03;;;;;;;5.22;4.53;;;;;;;;;;5083298;28;20216;-68
2023/04/27 05:16:29;;;;;;;8.73;5.10;;;;;;;;;;5083200;28;20223;-68
2023/04/27 05:18:56;;;;;;;8.52;5.03;;;;;;;;;;5083178;28;20430;-68
2023/04/27 05:21:22;;;;;;;10.75;5.32;;;;;;;;;;5083637;28;20200;-68
2023/04/27 05:23:50;;;;;;;6.63;4.88;;;;;;;;;;5083342;28;20200;-68
2023/04/27 05:26:17;;;;;;;6.32;4.88;;;;;;;;;;5083415;28;20204;-68
2023/04/27 05:28:44;;;;;;;10.18;5.50;;;;;;;;;;5074639;28;20219;-68
2023/04/27 05:31:10;;;;;;;6.15;4.80;;;;;;;;;;5083024;28;20200;-68
2023/04/27 05:33:36;;;;;;;8.35;5.13;;;;;;;;;;5083047;28;20216;-68
2023/04/27 05:36:03;;;;;;;7.40;5.32;;;;;;;;;;5083127;28;20504;-68
2023/04/27 05:38:29;;;;;;;5.70;5.20;;;;;;;;;;5082584;28;20200;-68
2023/04/27 05:40:57;;;;;;;6.15;5.55;;;;;;;;;;5082785;28;20200;-68
2023/04/27 05:43:24;;;;;;;8.73;4.93;;;;;;;;;;5082731;28;20374;-68
2023/04/27 05:45:50;;;;;;;7.78;5.35;;;;;;;;;;5082476;28;20219;-60
2023/04/27 05:48:17;;;;;;;6.93;4.93;;;;;;;;;;5061939;28;20326;-61
2023/04/27 05:50:43;;;;;;;6.38;4.85;;;;;;;;;;5069805;28;20213;-61
2023/04/27 05:53:10;;;;;;;6.97;5.00;;;;;;;;;;5065387;28;20270;-60
2023/04/27 05:55:36;;;;;;;10.68;5.28;;;;;;;;;;5075098;28;20463;-60
2023/04/27 05:58:04;;;;;;;7.88;5.30;;;;;;;;;;5072580;28;20393;-60
2023/04/27 06:00:30;;;;;;;11.50;5.35;;;;;;;;;;5074750;28;20212;-59
2023/04/27 06:02:56;;;;;;;5.53;5.00;;;;;;;;;;5075676;28;20238;-60
2023/04/27 06:05:23;;;;;;;7.55;5.15;;;;;;;;;;5075890;28;20212;-60
2023/04/27 06:07:49;;;;;;;5.65;4.72;;;;;;;;;;5077129;28;20212;-60
2023/04/27 06:10:15;;;;;;;7.75;5.47;;;;;;;;;;5076741;28;20212;-60
2023/04/27 06:12:41;;;;;;;9.32;4.93;;;;;;;;;;5075642;28;20220;-60
2023/04/27 06:15:09;;;;;;;11.60;4.65;;;;;;;;;;5075703;28;20475;-61
2023/04/27 06:17:36;;;;;;;13.48;4.72;;;;;;;;;;5075086;28;20235;-60
2023/04/27 06:20:05;;;;;;;7.13;5.05;;;;;;;;;;5075706;28;20283;-60
2023/04/27 06:22:31;;;;;;;6.75;4.57;;;;;;;;;;5075667;28;20543;-60
2023/04/27 06:24:58;;;;;;;5.63;4.43;;;;;;;;;;5074906;28;20664;-61
2023/04/27 06:27:24;;;;;;;9.48;5.15;;;;;;;;;;5074573;28;20551;-61
2023/04/27 06:29:50;;;;;;;9.70;5.35;;;;;;;;;;5073924;28;20250;-61
2023/04/27 06:32:18;;;;;;;8.65;4.93;;;;;;;;;;5074324;28;20212;-62
2023/04/27 06:34:44;;;;;;;7.40;4.80;;;;;;;;;;5074695;28;20224;-62
2023/04/27 06:37:10;;;;;;;8.35;4.78;;;;;;;;;;5076015;28;20216;-62
2023/04/27 06:39:37;;;;;;;11.38;4.80;;;;;;;;;;5075234;28;20410;-63
2023/04/27 06:42:03;;;;;;;9.20;5.10;;;;;;;;;;5075582;28;20212;-63
2023/04/27 06:44:51;;;;;;;5.40;4.50;;;;;;;;;;5075469;28;20314;-63
2023/04/27 06:47:20;;;;;;;11.38;4.72;;;;;;;;;;5075407;28;20523;-63
2023/04/27 06:49:46;;;;;;;9.27;4.55;;;;;;;;;;5074882;28;20212;-63
2023/04/27 06:52:12;;;;;;;6.60;4.53;;;;;;;;;;5075088;28;20219;-63
2023/04/27 06:54:38;;;;;;;7.53;4.55;;;;;;;;;;5075397;28;20277;-61
2023/04/27 06:57:05;;;;;;;7.97;5.07;;;;;;;;;;5074583;28;20216;-61
2023/04/27 06:59:31;;;;;;;7.72;4.50;;;;;;;;;;5074811;28;20219;-61
2023/04/27 07:01:58;;;;;;;8.70;4.97;;;;;;;;;;5075799;28;20212;-61
2023/04/27 07:04:26;;;;;;;8.98;4.55;;;;;;;;;;5074544;28;20200;-62
2023/04/27 07:06:52;;;;;;;7.47;4.55;;;;;;;;;;5074425;28;20284;-61
2023/04/27 07:09:18;;;;;;;8.07;5.20;;;;;;;;;;5074307;28;20220;-60
2023/04/27 07:11:44;;;;;;;11.63;5.00;;;;;;;;;;5073381;28;20523;-60
2023/04/27 07:14:10;;;;;;;8.18;4.88;;;;;;;;;;5074270;28;20228;-60
2023/04/27 07:16:37;;;;;;;6.00;4.40;;;;;;;;;;5075291;28;20242;-63
2023/04/27 07:19:03;;;;;;;11.63;5.25;;;;;;;;;;5075385;28;20213;-62
2023/04/27 07:21:32;;;;;;;6.80;4.65;;;;;;;;;;5075869;28;20254;-62
2023/04/27 07:23:58;;;;;;;11.13;4.65;;;;;;;;;;5075938;28;20209;-62
2023/04/27 07:26:25;;;;;;;13.85;5.10;;;;;;;;;;5075957;28;20456;-62
2023/04/27 07:28:52;;;;;;;7.07;5.32;;;;;;;;;;5075052;28;20514;-62
2023/04/27 07:31:18;;;;;;;6.55;5.00;;;;;;;;;;5075501;28;20303;-60
2023/04/27 07:33:45;;;;;;;10.57;5.07;;;;;;;;;;5075434;28;22123;-61
2023/04/27 07:36:11;;;;;;;8.25;4.57;;;;;;;;;;5074322;28;20212;-60
2023/04/27 07:38:39;;;;;;;5.88;4.80;;;;;;;;;;5075669;28;20220;-60
2023/04/27 07:41:06;;;;;;;8.15;4.50;;;;;;;;;;5075375;28;20436;-60
2023/04/27 07:43:32;;;;;;;13.82;4.38;;;;;;;;;;5074880;28;20213;-61
2023/04/27 07:45:58;;;;;;;7.03;4.70;;;;;;;;;;5075758;28;20208;-61
2023/04/27 07:48:24;;;;;;;7.90;4.63;;;;;;;;;;5074898;28;20224;-61
2023/04/27 07:50:51;;;;;;;5.25;4.75;;;;;;;;;;5075659;28;20212;-60
2023/04/27 07:53:17;;;;;;;6.15;4.30;;;;;;;;;;5079097;28;20212;-60
2023/04/27 07:55:45;;;;;;;7.20;4.57;;;;;;;;;;5078237;28;20258;-60
2023/04/27 07:58:11;;;;;;;6.57;4.40;;;;;;;;;;5077283;28;20277;-60
2023/04/27 08:00:38;;;;;;;8.07;4.53;;;;;;;;;;5078826;28;20217;-60
2023/04/27 08:03:04;;;;;;;7.35;4.32;;;;;;;;;;5078502;28;20582;-61
2023/04/27 08:05:30;;;;;;;6.18;4.57;;;;;;;;;;5077211;28;20266;-61
2023/04/27 08:07:56;;;;;;;5.90;4.25;;;;;;;;;;5077168;28;20216;-61
2023/04/27 08:10:23;;;;;;;5.43;3.70;;;;;;;;;;5078060;28;20208;-61
2023/04/27 08:12:50;;;;;;;5.72;3.97;;;;;;;;;;5077725;28;20212;-61
2023/04/27 08:15:17;;;;;;;3.60;3.33;;;;;;;;;;5077430;28;20216;-61
2023/04/27 08:17:43;;;;;;;5.00;4.40;;;;;;;;;;5077783;28;20250;-61
2023/04/27 08:20:10;;;;;;;8.20;4.10;;;;;;;;;;5077684;28;20212;-61
2023/04/27 08:22:36;;;;;;;6.55;3.80;;;;;;;;;;5078509;28;20273;-60
2023/04/27 08:25:03;;;;;;;9.43;4.00;;;;;;;;;;5077078;28;20246;-59
2023/04/27 08:27:30;;;;;;;5.75;4.00;;;;;;;;;;5077769;28;20231;-62
2023/04/27 08:29:59;;;;;;;4.82;3.60;;;;;;;;;;5077160;28;20200;-59
2023/04/27 08:32:27;;;;;;;6.43;3.58;;;;;;;;;;5076910;28;20564;-59
2023/04/27 08:34:53;;;;;;;7.38;3.80;;;;;;;;;;5075777;28;20224;-59
2023/04/27 08:37:19;;;;;;;5.35;3.83;;;;;;;;;;5072847;28;20209;-60
2023/04/27 08:39:46;;;;;;;6.60;3.90;;;;;;;;;;5077500;28;20211;-61
2023/04/27 08:42:13;;;;;;;4.18;3.78;;;;;;;;;;5077296;28;20528;-61
2023/04/27 08:44:40;;;;;;;4.38;3.20;;;;;;;;;;5075928;28;20205;-61
2023/04/27 08:47:07;;;;;;;5.32;3.30;;;;;;;;;;5077299;28;20215;-61
2023/04/27 08:49:34;;;;;;;5.32;3.40;;;;;;;;;;5076316;28;20215;-61
2023/04/27 08:52:00;;;;;;;4.15;3.05;;;;;;;;;;5077001;28;20209;-61
2023/04/27 08:54:27;;;;;;;4.55;3.00;;;;;;;;;;5076648;28;20227;-61
2023/04/27 08:56:53;;;;;;;4.72;3.45;;;;;;;;;;5076923;28;20208;-61
2023/04/27 08:59:19;;;;;;;5.30;3.00;;;;;;;;;;5075762;28;20230;-60
2023/04/27 09:01:47;;;;;;;5.32;2.90;;;;;;;;;;5076374;28;20208;-60
2023/04/27 09:04:16;;;;;;;3.70;3.03;;;;;;;;;;5076532;28;20227;-60
2023/04/27 09:06:42;;;;;;;5.47;3.17;;;;;;;;;;5077268;28;20208;-59
2023/04/27 09:09:10;;;;;;;3.47;2.75;;;;;;;;;;5078181;28;20242;-60
2023/04/27 09:11:36;;;;;;;4.78;2.50;;;;;;;;;;5076715;28;20290;-60
2023/04/27 09:14:04;;;;;;;5.05;2.63;;;;;;;;;;5076563;28;20246;-60
2023/04/27 09:16:31;;;;;;;5.18;3.00;;;;;;;;;;5076984;28;20213;-59
2023/04/27 09:18:58;;;;;;;5.28;2.95;;;;;;;;;;5069521;28;20201;-60
2023/04/27 09:21:26;;;;;;;3.80;2.55;;;;;;;;;;5076879;28;20208;-60
2023/04/27 09:23:53;;;;;;;4.47;2.50;;;;;;;;;;5076389;28;20205;-60
2023/04/27 09:26:20;;;;;;;3.95;2.45;;;;;;;;;;5076121;28;20212;-60
2023/04/27 09:28:48;;;;;;;4.30;2.83;;;;;;;;;;5076087;28;20282;-60
2023/04/27 09:31:14;;;;;;;5.68;2.45;;;;;;;;;;5076829;28;20226;-60
2023/04/27 09:33:40;;;;;;;4.90;2.17;;;;;;;;;;5077075;28;20235;-60
2023/04/27 09:36:07;;;;;;;5.95;2.35;;;;;;;;;;5075927;28;20215;-60
2023/04/27 09:38:34;;;;;;;7.85;2.83;;;;;;;;;;5075867;28;20556;-61
2023/04/27 09:41:01;;;;;;;3.90;2.83;;;;;;;;;;5075454;28;20466;-62
2023/04/27 09:43:29;;;;;;;3.20;1.98;;;;;;;;;;5075669;28;20293;-62
2023/04/27 09:45:56;;;;;;;2.05;1.95;;;;;;;;;;5076682;28;20208;-60
2023/04/27 09:48:23;;;;;;;6.43;2.80;;;;;;;;;;5075814;28;20566;-60
2023/04/27 09:50:50;;;;;;;3.47;2.13;;;;;;;;;;5075368;28;20220;-60
2023/04/27 09:53:18;;;;;;;5.18;2.00;;;;;;;;;;5075491;28;20211;-60
2023/04/27 09:55:48;;;;;;;7.20;2.25;;;;;;;;;;5076369;28;20228;-60
2023/04/27 09:58:20;;;;;;;3.75;1.92;;;;;;;;;;5075232;28;20196;-60
2023/04/27 10:00:53;;;;;;;4.10;2.08;;;;;;;;;;5076136;28;20216;-60
2023/04/27 10:03:22;;;;;;;2.65;2.33;;;;;;;;;;5075633;28;20436;-60
2023/04/27 10:06:02;;;;;;;5.93;2.80;;;;;;;;;;5073606;28;20514;-60
2023/04/27 10:08:29;;;;;;;3.38;2.05;;;;;;;;;;5075801;28;20268;-60
2023/04/27 10:10:56;;;;;;;4.88;2.67;;;;;;;;;;5076119;28;20504;-60
2023/04/27 10:13:23;;;;;;;4.35;2.60;;;;;;;;;;5074446;28;20413;-59
2023/04/27 10:15:51;;;;;;;4.75;2.13;;;;;;;;;;5075960;28;20228;-60
2023/04/27 10:18:27;;;;;;;4.28;2.50;;;;;;;;;;5076785;28;20519;-60
2023/04/27 10:20:53;;;;;;;5.90;2.85;;;;;;;;;;5075582;28;20212;-60
2023/04/27 10:23:24;;;;;;;4.85;2.60;;;;;;;;;;5077068;28;20254;-60
2023/04/27 10:25:50;;;;;;;6.13;3.03;;;;;;;;;;5076855;28;20516;-60
2023/04/27 10:28:19;;;;;;;3.67;2.78;;;;;;;;;;5076853;28;20228;-60
2023/04/27 10:30:47;;;;;;;7.80;3.20;;;;;;;;;;5077091;28;20212;-60
2023/04/27 10:33:16;;;;;;;3.75;2.90;;;;;;;;;;5076258;28;20236;-59
2023/04/27 10:35:44;;;;;;;11.30;2.90;;;;;;;;;;5076038;28;20216;-60
2023/04/27 10:38:11;;;;;;;7.40;3.05;;;;;;;;;;5069922;28;20290;-60
2023/04/27 10:40:37;;;;;;;4.05;3.25;;;;;;;;;;5077103;28;20425;-60
2023/04/27 10:43:10;;;;;;;5.38;3.45;;;;;;;;;;5076995;28;20204;-60
2023/04/27 10:45:39;;;;;;;5.07;2.85;;;;;;;;;;5075671;28;20208;-59
2023/04/27 10:48:05;;;;;;;6.40;2.78;;;;;;;;;;5076422;28;20571;-60
2023/04/27 10:50:31;;;;;;;4.63;2.95;;;;;;;;;;5076314;28;20270;-60
2023/04/27 10:53:00;;;;;;;4.38;3.13;;;;;;;;;;5077104;28;20216;-60
2023/04/27 10:55:26;;;;;;;3.50;2.95;;;;;;;;;;5076003;28;20484;-59
2023/04/27 10:57:53;;;;;;;5.28;3.55;;;;;;;;;;5074631;28;20212;-60
2023/04/27 11:00:24;;;;;;;5.68;2.67;;;;;;;;;;5075150;28;20208;-59
2023/04/27 11:02:52;;;;;;;3.78;2.58;;;;;;;;;;5075444;28;20212;-60
2023/04/27 11:05:19;;;;;;;5.18;2.72;;;;;;;;;;5074124;28;20211;-60
2023/04/27 11:07:46;;;;;;;5.47;3.05;;;;;;;;;;5075086;28;20212;-61
2023/04/27 11:10:14;;;;;;;3.85;2.92;;;;;;;;;;5074715;28;20494;-60
2023/04/27 11:12:41;;;;;;;4.07;3.50;;;;;;;;;;5074876;28;20217;-60
2023/04/27 11:15:07;;;;;;;7.68;3.50;;;;;;;;;;5074652;28;20220;-60
2023/04/27 11:17:34;;;;;;;5.05;3.25;;;;;;;;;;5075298;28;20284;-61
2023/04/27 11:20:03;;;;;;;7.82;3.25;;;;;;;;;;5074699;28;20204;-61
2023/04/27 11:22:30;;;;;;;3.38;2.63;;;;;;;;;;5075760;28;20213;-60
2023/04/27 11:24:56;;;;;;;5.50;3.05;;;;;;;;;;5075956;28;20209;-61
2023/04/27 11:27:24;;;;;;;10.40;3.75;;;;;;;;;;5078796;28;20285;-60
2023/04/27 11:29:50;;;;;;;3.60;3.20;;;;;;;;;;5077781;28;20555;-63
2023/04/27 11:32:20;;;;;;;6.40;3.40;;;;;;;;;;5078805;28;20586;-59
2023/04/27 11:34:49;;;;;;;4.90;3.42;;;;;;;;;;5078032;28;20235;-60
2023/04/27 11:37:21;;;;;;;7.82;3.50;;;;;;;;;;5078418;28;20622;-61
2023/04/27 11:39:47;;;;;;;8.20;3.78;;;;;;;;;;5078392;28;20218;-61
2023/04/27 11:42:15;;;;;;;5.03;2.63;;;;;;;;;;5078687;28;20208;-61
2023/04/27 11:44:41;;;;;;;4.05;3.10;;;;;;;;;;5075090;28;20196;-60
2023/04/27 11:47:08;;;;;;;4.82;3.03;;;;;;;;;;5079008;28;20212;-59
2023/04/27 11:49:34;;;;;;;5.82;3.00;;;;;;;;;;5078973;28;20213;-60
2023/04/27 11:52:02;;;;;;;9.75;3.30;;;;;;;;;;5078128;28;20216;-60
2023/04/27 11:54:30;;;;;;;6.05;3.28;;;;;;;;;;5078144;28;20221;-60
2023/04/27 11:57:04;;;;;;;6.43;2.67;;;;;;;;;;5077704;28;20270;-60
2023/04/27 11:59:30;;;;;;;4.63;3.33;;;;;;;;;;5077798;28;20208;-61
2023/04/27 12:01:56;;;;;;;5.95;3.30;;;;;;;;;;5077405;28;20254;-61
2023/04/27 12:04:23;;;;;;;5.88;3.28;;;;;;;;;;5077474;28;20236;-60
2023/04/27 12:06:49;;;;;;;4.45;3.80;;;;;;;;;;5077473;28;20212;-60
2023/04/27 12:09:16;;;;;;;4.72;2.72;;;;;;;;;;5077717;28;20208;-62
2023/04/27 12:11:43;;;;;;;4.05;3.38;;;;;;;;;;5078091;28;20481;-60
2023/04/27 12:14:10;;;;;;;4.45;2.83;;;;;;;;;;5077900;28;20209;-60
2023/04/27 12:16:36;;;;;;;6.22;3.13;;;;;;;;;;5077267;28;20278;-60
2023/04/27 12:19:03;;;;;;;4.43;3.13;;;;;;;;;;5077637;28;20208;-62
2023/04/27 12:21:30;;;;;;;5.22;3.33;;;;;;;;;;5077918;28;20407;-62
2023/04/27 12:23:57;;;;;;;3.60;2.80;;;;;;;;;;5077831;28;20258;-60
2023/04/27 12:26:23;;;;;;;6.70;2.95;;;;;;;;;;5076874;28;20230;-60
2023/04/27 12:28:51;;;;;;;4.25;2.58;;;;;;;;;;5077456;28;20476;-62
2023/04/27 12:31:21;;;;;;;4.85;3.28;;;;;;;;;;5077139;28;20265;-61
2023/04/27 12:33:48;;;;;;;6.50;2.78;;;;;;;;;;5077170;28;20464;-62
2023/04/27 12:36:14;;;;;;;6.10;3.05;;;;;;;;;;5076864;28;20240;-61
2023/04/27 12:38:41;;;;;;;3.67;2.58;;;;;;;;;;5076315;28;20231;-61
2023/04/27 12:41:07;;;;;;;5.13;2.80;;;;;;;;;;5070614;28;20439;-62
2023/04/27 12:43:34;;;;;;;5.55;2.90;;;;;;;;;;5077202;28;20208;-60
2023/04/27 12:46:02;;;;;;;7.05;3.10;;;;;;;;;;5076654;28;20208;-64
2023/04/27 12:48:29;;;;;;;2.67;2.47;;;;;;;;;;5076422;28;20211;-62
2023/04/27 12:50:56;;;;;;;4.60;3.40;;;;;;;;;;5077361;28;20212;-61
2023/04/27 12:53:22;;;;;;;4.28;2.60;;;;;;;;;;5078281;28;20230;-62
2023/04/27 12:55:49;;;;;;;2.92;2.72;;;;;;;;;;5077242;28;20224;-60
2023/04/27 12:58:15;;;;;;;5.90;2.83;;;;;;;;;;5076559;28;20275;-61
2023/04/27 13:00:41;;;;;;;4.35;3.00;;;;;;;;;;5076300;28;20246;-61
2023/04/27 13:03:09;;;;;;;4.72;2.65;;;;;;;;;;5070412;28;20219;-61
2023/04/27 13:05:35;;;;;;;6.47;2.80;;;;;;;;;;5075703;28;20208;-61
2023/04/27 13:08:01;;;;;;;6.22;2.70;;;;;;;;;;5076041;28;20212;-62
2023/04/27 13:10:28;;;;;;;5.80;2.80;;;;;;;;;;5076993;28;20209;-61
2023/04/27 13:12:54;;;;;;;5.75;2.47;;;;;;;;;;5077064;28;20216;-61
2023/04/27 13:15:20;;;;;;;5.40;2.60;;;;;;;;;;5076595;28;20261;-61
2023/04/27 13:17:47;;;;;;;5.57;2.88;;;;;;;;;;5076746;28;20234;-60
2023/04/27 13:20:15;;;;;;;3.15;2.67;;;;;;;;;;5077100;28;20334;-60
2023/04/27 13:22:41;;;;;;;3.22;2.60;;;;;;;;;;5077776;28;20213;-62
2023/04/27 13:25:08;;;;;;;5.93;2.72;;;;;;;;;;5076409;28;20429;-61
2023/04/27 13:27:35;;;;;;;3.60;2.35;;;;;;;;;;5077056;28;20223;-60
2023/04/27 13:30:01;;;;;;;3.55;2.88;;;;;;;;;;5075969;28;20212;-61
2023/04/27 13:32:27;;;;;;;4.85;2.60;;;;;;;;;;5077255;28;20564;-62
2023/04/27 13:34:53;;;;;;;4.10;3.30;;;;;;;;;;5076615;28;20227;-60
2023/04/27 13:37:21;;;;;;;10.13;3.30;;;;;;;;;;5075198;28;20228;-61
2023/04/27 13:39:47;;;;;;;4.55;3.30;;;;;;;;;;5076263;28;20250;-61
2023/04/27 13:42:13;;;;;;;3.08;2.50;;;;;;;;;;5076922;28;20250;-60
2023/04/27 13:44:40;;;;;;;4.03;3.05;;;;;;;;;;5076196;28;20546;-60
2023/04/27 13:47:06;;;;;;;5.35;2.90;;;;;;;;;;5076602;28;20208;-60
2023/04/27 13:49:33;;;;;;;3.83;3.08;;;;;;;;;;5075649;28;20208;-60
2023/04/27 13:51:59;;;;;;;7.30;2.60;;;;;;;;;;5076361;28;20407;-60
2023/04/27 13:54:27;;;;;;;2.92;2.53;;;;;;;;;;5075967;28;20208;-61
2023/04/27 13:56:53;;;;;;;2.90;2.63;;;;;;;;;;5075372;28;20570;-60
2023/04/27 13:59:20;;;;;;;3.13;2.80;;;;;;;;;;5075901;28;20456;-60
2023/04/27 14:01:46;;;;;;;5.05;3.08;;;;;;;;;;5075831;28;20218;-60
2023/04/27 14:04:13;;;;;;;3.97;2.63;;;;;;;;;;5075528;28;20292;-61
2023/04/27 14:06:39;;;;;;;6.20;2.50;;;;;;;;;;5075091;28;20450;-63
2023/04/27 14:09:05;;;;;;;4.43;2.30;;;;;;;;;;5075993;28;20215;-63
2023/04/27 14:11:33;;;;;;;4.60;1.70;;;;;;;;;;5075534;28;20280;-60
2023/04/27 14:13:59;;;;;;;3.95;1.95;;;;;;;;;;5076067;28;20514;-60
2023/04/27 14:16:26;;;;;;;3.60;2.10;;;;;;;;;;5076622;28;20534;-61
2023/04/27 14:18:54;;;;;;;4.13;2.15;;;;;;;;;;5071930;28;20303;-60
2023/04/27 14:21:21;;;;;;;2.20;2.00;;;;;;;;;;5075858;28;20236;-60
2023/04/27 14:23:47;;;;;;;3.88;1.98;;;;;;;;;;5075831;28;20241;-60
2023/04/27 14:26:13;;;;;;;5.13;1.90;;;;;;;;;;5067507;28;20200;-60
2023/04/27 14:28:41;;;;;;;2.05;1.83;;;;;;;;;;5071413;28;20583;-60
2023/04/27 14:31:07;;;;;;;3.78;1.70;;;;;;;;;;5075299;28;20216;-60
2023/04/27 14:33:33;;;;;;;2.88;1.40;;;;;;;;;;5076543;28;20196;-60
2023/04/27 14:36:00;;;;;;;2.03;1.55;;;;;;;;;;5075982;28;20228;-60
2023/04/27 14:38:26;;;;;;;2.22;1.73;;;;;;;;;;5071631;28;20214;-60
2023/04/27 14:40:52;;;;;;;2.47;2.20;;;;;;;;;;5077644;28;20222;-59